Startpagina
METAR-TAF:

METAR-TAF

Vliegvelden :

Luchthaven Caïro Internationaal

Caïro, Egypte

breedte: 30-08N, lengte: 031-24E, hoogte: 64 m

Actueel weer

Dit bericht is 19 minuten geleden gemaakt, om 05:00 UTC
Wind 6 kt uit het oostnoordoosten
Temperatuur 28°C
Vochtigheid 30%
Druk 1013 hPa
Zicht 10 km of meer
geen wolken onder 1500 m en geen cumulonimbus

METAR: HECA 210500Z 06006KT CAVOK 28/09 Q1013 NOSIG

Tijdstip: 07:19 (05:19 UTC)

Verwachting

Dit bericht is 6 uur en het 19 minuten geleden gemaakt, om 23:00 UTC
Verwachting geldig van 21 om 00 UTC tot 22 om 06 UTC
Wind 8 kt uit het noordoosten
Zicht 10 km of meer
geen wolken onder 1500 m en geen cumulonimbus
Kans 30% :
Tijdelijke
van 21 om 03 UTC tot 21 om 06 UTC
Zicht: 4000 m
Heiigheid

TAF: HECA 202300Z 2100/2206 04008KT CAVOK PROB30 TEMPO 2103/2106 4000 HZ NSC

Waarnemingen en weersverwachtingen van meer dan 4000 vliegvelden (METAR en TAF).

De beschikbare stations zijn de gele en rode punten op de kaart.

Ga met uw muis naar het station om de naam te zien.

Klik dan om waarnemingen en weersverwachtingen te zien.

kaart wijzigen: klik op de groene knoppen met een zwart kruis om in te zoomen, op de groene knop met een streepje om uit te zoomen of op de groene pijlen voor aangrenzende kaarten.


METAR-TAF: